Cleveland Hopkins International Airport
KCLE : now visible

Airfield :











YOU CAN JOIN US ON...

 
LOGIN :

Register | Disclaimer

   EN    FR    IT 

 









Legend :    VFR   Marginal VFR   IFR   Intensive IFR   Very Intensive IFR
Visi :
Ceiling :
>= 8 km
>= 3000ft
5 to 8 km
1000 to 3000 ft
1500m to 5 km
500 to 1000 ft
800 to 1500m
200 to 500 ft
< 800m
< 200 ft
Symbols :   Thunderstorms  Fog  Heavy snow  Heavy precipitations  Wind > 20 kt






- Airport Elevation : 791 ft
- IATA code : CLE


KCLE - Cleveland Hopkins International

CURRENT METAR :
  • 291251Z 22010KT 10SM SCT100 SCT120 BKN130 BKN250 23/17 A2992 RMK AO2 SLP125 T02280167

EXPIRED METARs :
  • 291151Z 20010KT 10SM SCT055 BKN095 BKN110 BKN250 22/17 A2991 RMK AO2 RAB24E49 SLP123 P0000 60000 70009 T02170172 10217 20194 51009
  • 291051Z 19009KT 10SM FEW047 SCT100 BKN160 BKN250 21/17 A2990 RMK AO2 SLP120 VCSH SW-NW T02110167

TAF KCLE
Valid from the 29 at 12:00 until the 30 at 18:00 UTC


291125Z 2912/3018 21009KT P6SM -SHRA SCT030 BKN110
FM291400 23011KT P6SM -SHRA SCT010 BKN040
TEMPO 2918/2920 25025G35KT 4SM +TSRA SCT005 OVC030CB
FM292000 30012KT P6SM -SHRA SCT005 OVC020
FM292300 VRB05KT P6SM SCT020 SCT040
FM301500 30013KT P6SM BKN040
KZOB FIR / North America



MET'MAP, your aeronautical weather chart ! - Copyright ORBIFLY December 2007 - Disclaimer

ORBIFLY MET'MAP TEAM :

Programming & Development : Alexandra Zaïnal
Concept & original design : Baudouin d'Aumeries
Assistance for programming : Marc-Olivier Méhu
Technical & hardware support : Manuel Goepfert

Contact : metmap@orbifly.com




SOURCES & CREDITS :

   NOAA       Earth
Advisory